sensor_id;sensor_type;location;lat;lon;timestamp;temperature;humidity
22167;DHT22;11249;52.468;13.776;2023-10-08T00:02:17;11.30;99.90
22167;DHT22;11249;52.468;13.776;2023-10-08T00:04:49;11.40;99.90
22167;DHT22;11249;52.468;13.776;2023-10-08T00:07:17;11.40;99.90
22167;DHT22;11249;52.468;13.776;2023-10-08T00:09:48;11.30;99.90
22167;DHT22;11249;52.468;13.776;2023-10-08T00:12:15;11.40;99.90
22167;DHT22;11249;52.468;13.776;2023-10-08T00:14:43;11.30;99.90
22167;DHT22;11249;52.468;13.776;2023-10-08T00:17:16;11.30;99.90
22167;DHT22;11249;52.468;13.776;2023-10-08T00:19:44;11.30;99.90
22167;DHT22;11249;52.468;13.776;2023-10-08T00:22:11;11.30;99.90
22167;DHT22;11249;52.468;13.776;2023-10-08T00:24:40;11.30;99.90
22167;DHT22;11249;52.468;13.776;2023-10-08T00:27:08;11.30;99.90
22167;DHT22;11249;52.468;13.776;2023-10-08T00:29:35;11.30;99.90
22167;DHT22;11249;52.468;13.776;2023-10-08T00:32:06;11.30;99.90
22167;DHT22;11249;52.468;13.776;2023-10-08T00:34:41;11.30;99.90
22167;DHT22;11249;52.468;13.776;2023-10-08T00:37:10;11.30;99.90
22167;DHT22;11249;52.468;13.776;2023-10-08T00:39:37;11.30;99.90
22167;DHT22;11249;52.468;13.776;2023-10-08T00:42:06;11.30;99.90
22167;DHT22;11249;52.468;13.776;2023-10-08T00:44:34;11.30;99.90
22167;DHT22;11249;52.468;13.776;2023-10-08T00:47:18;11.30;99.90
22167;DHT22;11249;52.468;13.776;2023-10-08T00:49:47;11.30;99.90
22167;DHT22;11249;52.468;13.776;2023-10-08T00:52:29;11.30;99.90
22167;DHT22;11249;52.468;13.776;2023-10-08T00:54:57;11.30;99.90
22167;DHT22;11249;52.468;13.776;2023-10-08T00:57:35;11.30;99.90
22167;DHT22;11249;52.468;13.776;2023-10-08T01:00:04;11.30;99.90
22167;DHT22;11249;52.468;13.776;2023-10-08T01:02:33;11.30;99.90
22167;DHT22;11249;52.468;13.776;2023-10-08T01:05:38;11.30;99.90
22167;DHT22;11249;52.468;13.776;2023-10-08T01:08:15;11.40;99.90
22167;DHT22;11249;52.468;13.776;2023-10-08T01:10:49;11.40;99.90
22167;DHT22;11249;52.468;13.776;2023-10-08T01:13:24;11.40;99.90
22167;DHT22;11249;52.468;13.776;2023-10-08T01:15:53;11.40;99.90
22167;DHT22;11249;52.468;13.776;2023-10-08T01:18:21;11.40;99.90
22167;DHT22;11249;52.468;13.776;2023-10-08T01:20:57;11.40;99.90
22167;DHT22;11249;52.468;13.776;2023-10-08T01:23:31;11.40;99.90
22167;DHT22;11249;52.468;13.776;2023-10-08T01:25:58;11.40;99.90
22167;DHT22;11249;52.468;13.776;2023-10-08T01:28:37;11.40;99.90
22167;DHT22;11249;52.468;13.776;2023-10-08T01:31:04;11.40;99.90
22167;DHT22;11249;52.468;13.776;2023-10-08T01:33:33;11.40;99.90
22167;DHT22;11249;52.468;13.776;2023-10-08T01:36:05;11.30;99.90
22167;DHT22;11249;52.468;13.776;2023-10-08T01:38:34;11.40;99.90
22167;DHT22;11249;52.468;13.776;2023-10-08T01:41:01;11.30;99.90
22167;DHT22;11249;52.468;13.776;2023-10-08T01:43:47;11.30;99.90
22167;DHT22;11249;52.468;13.776;2023-10-08T01:46:14;11.30;99.90
22167;DHT22;11249;52.468;13.776;2023-10-08T01:48:42;11.30;99.90
22167;DHT22;11249;52.468;13.776;2023-10-08T01:51:11;11.30;99.90
22167;DHT22;11249;52.468;13.776;2023-10-08T01:53:45;11.30;99.90
22167;DHT22;11249;52.468;13.776;2023-10-08T01:56:13;11.30;99.90
22167;DHT22;11249;52.468;13.776;2023-10-08T01:58:41;11.30;99.90
22167;DHT22;11249;52.468;13.776;2023-10-08T02:01:07;11.40;99.90
22167;DHT22;11249;52.468;13.776;2023-10-08T02:03:38;11.30;99.90
22167;DHT22;11249;52.468;13.776;2023-10-08T02:06:05;11.30;99.90
22167;DHT22;11249;52.468;13.776;2023-10-08T02:08:35;11.30;99.90
22167;DHT22;11249;52.468;13.776;2023-10-08T02:11:03;11.30;99.90
22167;DHT22;11249;52.468;13.776;2023-10-08T02:13:29;11.30;99.90
22167;DHT22;11249;52.468;13.776;2023-10-08T02:15:57;11.30;99.90
22167;DHT22;11249;52.468;13.776;2023-10-08T02:18:24;11.30;99.90
22167;DHT22;11249;52.468;13.776;2023-10-08T02:20:52;11.30;99.90
22167;DHT22;11249;52.468;13.776;2023-10-08T02:23:19;11.30;99.90
22167;DHT22;11249;52.468;13.776;2023-10-08T02:25:46;11.30;99.90
22167;DHT22;11249;52.468;13.776;2023-10-08T02:28:14;11.30;99.90
22167;DHT22;11249;52.468;13.776;2023-10-08T02:30:42;11.30;99.90
22167;DHT22;11249;52.468;13.776;2023-10-08T02:33:09;11.30;99.90
22167;DHT22;11249;52.468;13.776;2023-10-08T02:35:44;11.30;99.90
22167;DHT22;11249;52.468;13.776;2023-10-08T02:38:11;11.30;99.90
22167;DHT22;11249;52.468;13.776;2023-10-08T02:40:39;11.30;99.90
22167;DHT22;11249;52.468;13.776;2023-10-08T02:43:15;11.30;99.90
22167;DHT22;11249;52.468;13.776;2023-10-08T02:45:42;11.30;99.90
22167;DHT22;11249;52.468;13.776;2023-10-08T02:48:13;11.30;99.90
22167;DHT22;11249;52.468;13.776;2023-10-08T02:50:40;11.30;99.90
22167;DHT22;11249;52.468;13.776;2023-10-08T02:53:07;11.30;99.90
22167;DHT22;11249;52.468;13.776;2023-10-08T02:55:41;11.30;99.90
22167;DHT22;11249;52.468;13.776;2023-10-08T02:58:10;11.20;99.90
22167;DHT22;11249;52.468;13.776;2023-10-08T03:00:46;11.20;99.90
22167;DHT22;11249;52.468;13.776;2023-10-08T03:03:13;11.20;99.90
22167;DHT22;11249;52.468;13.776;2023-10-08T03:05:46;11.20;99.90
22167;DHT22;11249;52.468;13.776;2023-10-08T03:08:13;11.20;99.90
22167;DHT22;11249;52.468;13.776;2023-10-08T03:10:40;11.20;99.90
22167;DHT22;11249;52.468;13.776;2023-10-08T03:13:08;11.20;99.90
22167;DHT22;11249;52.468;13.776;2023-10-08T03:15:36;11.20;99.90
22167;DHT22;11249;52.468;13.776;2023-10-08T03:18:22;11.20;99.90
22167;DHT22;11249;52.468;13.776;2023-10-08T03:20:48;11.10;99.90
22167;DHT22;11249;52.468;13.776;2023-10-08T03:23:17;11.10;99.90
22167;DHT22;11249;52.468;13.776;2023-10-08T03:25:54;11.10;99.90
22167;DHT22;11249;52.468;13.776;2023-10-08T03:28:37;11.20;99.90
22167;DHT22;11249;52.468;13.776;2023-10-08T03:31:07;11.10;99.90
22167;DHT22;11249;52.468;13.776;2023-10-08T03:33:44;11.10;99.90
22167;DHT22;11249;52.468;13.776;2023-10-08T03:36:15;11.10;99.90
22167;DHT22;11249;52.468;13.776;2023-10-08T03:38:49;11.10;99.90
22167;DHT22;11249;52.468;13.776;2023-10-08T03:41:22;11.00;99.90
22167;DHT22;11249;52.468;13.776;2023-10-08T03:43:55;11.00;99.90
22167;DHT22;11249;52.468;13.776;2023-10-08T03:46:28;11.00;99.90
22167;DHT22;11249;52.468;13.776;2023-10-08T03:48:55;11.00;99.90
22167;DHT22;11249;52.468;13.776;2023-10-08T03:51:24;11.00;99.90
22167;DHT22;11249;52.468;13.776;2023-10-08T03:53:53;11.00;99.90
22167;DHT22;11249;52.468;13.776;2023-10-08T03:56:36;11.00;99.90
22167;DHT22;11249;52.468;13.776;2023-10-08T03:59:03;10.90;99.90
22167;DHT22;11249;52.468;13.776;2023-10-08T04:01:43;10.90;99.90
22167;DHT22;11249;52.468;13.776;2023-10-08T04:04:10;10.90;99.90
22167;DHT22;11249;52.468;13.776;2023-10-08T04:06:40;10.90;99.90
22167;DHT22;11249;52.468;13.776;2023-10-08T04:09:15;10.90;99.90
22167;DHT22;11249;52.468;13.776;2023-10-08T04:11:47;10.90;99.90
22167;DHT22;11249;52.468;13.776;2023-10-08T04:14:18;10.90;99.90
22167;DHT22;11249;52.468;13.776;2023-10-08T04:16:45;10.90;99.90
22167;DHT22;11249;52.468;13.776;2023-10-08T04:19:12;10.80;99.90
22167;DHT22;11249;52.468;13.776;2023-10-08T04:21:39;10.80;99.90
22167;DHT22;11249;52.468;13.776;2023-10-08T04:24:09;10.80;99.90
22167;DHT22;11249;52.468;13.776;2023-10-08T04:26:37;10.80;99.90
22167;DHT22;11249;52.468;13.776;2023-10-08T04:29:07;10.80;99.90
22167;DHT22;11249;52.468;13.776;2023-10-08T04:31:35;10.80;99.90
22167;DHT22;11249;52.468;13.776;2023-10-08T04:34:13;10.80;99.90
22167;DHT22;11249;52.468;13.776;2023-10-08T04:36:43;10.80;99.90
22167;DHT22;11249;52.468;13.776;2023-10-08T04:39:13;10.90;99.90
22167;DHT22;11249;52.468;13.776;2023-10-08T04:41:48;10.80;99.90
22167;DHT22;11249;52.468;13.776;2023-10-08T04:44:19;10.80;99.90
22167;DHT22;11249;52.468;13.776;2023-10-08T04:46:48;10.80;99.90
22167;DHT22;11249;52.468;13.776;2023-10-08T04:49:18;10.70;99.90
22167;DHT22;11249;52.468;13.776;2023-10-08T04:51:55;10.70;99.90
22167;DHT22;11249;52.468;13.776;2023-10-08T04:54:25;10.60;99.90
22167;DHT22;11249;52.468;13.776;2023-10-08T04:56:57;10.60;99.90
22167;DHT22;11249;52.468;13.776;2023-10-08T04:59:25;10.50;99.90
22167;DHT22;11249;52.468;13.776;2023-10-08T05:02:05;10.50;99.90
22167;DHT22;11249;52.468;13.776;2023-10-08T05:04:40;10.50;99.90
22167;DHT22;11249;52.468;13.776;2023-10-08T05:07:19;10.40;99.90
22167;DHT22;11249;52.468;13.776;2023-10-08T05:10:04;10.40;99.90
22167;DHT22;11249;52.468;13.776;2023-10-08T05:12:34;10.30;99.90
22167;DHT22;11249;52.468;13.776;2023-10-08T05:15:04;10.30;99.90
22167;DHT22;11249;52.468;13.776;2023-10-08T05:17:40;10.20;99.90
22167;DHT22;11249;52.468;13.776;2023-10-08T05:20:21;10.20;99.90
22167;DHT22;11249;52.468;13.776;2023-10-08T05:23:11;10.20;99.90
22167;DHT22;11249;52.468;13.776;2023-10-08T05:25:47;10.10;99.90
22167;DHT22;11249;52.468;13.776;2023-10-08T05:28:32;10.10;99.90
22167;DHT22;11249;52.468;13.776;2023-10-08T05:31:08;10.00;99.90
22167;DHT22;11249;52.468;13.776;2023-10-08T05:33:58;10.00;99.90
22167;DHT22;11249;52.468;13.776;2023-10-08T05:36:44;10.00;99.90
22167;DHT22;11249;52.468;13.776;2023-10-08T05:39:17;9.90;99.90
22167;DHT22;11249;52.468;13.776;2023-10-08T05:42:00;9.90;99.90
22167;DHT22;11249;52.468;13.776;2023-10-08T05:44:46;9.80;99.90
22167;DHT22;11249;52.468;13.776;2023-10-08T05:47:33;9.80;99.90
22167;DHT22;11249;52.468;13.776;2023-10-08T05:50:00;9.80;99.90
22167;DHT22;11249;52.468;13.776;2023-10-08T05:52:43;9.80;99.90
22167;DHT22;11249;52.468;13.776;2023-10-08T05:55:25;9.80;99.90
22167;DHT22;11249;52.468;13.776;2023-10-08T05:57:53;9.80;99.90
22167;DHT22;11249;52.468;13.776;2023-10-08T06:00:29;9.80;99.90
22167;DHT22;11249;52.468;13.776;2023-10-08T06:03:13;9.80;99.90
22167;DHT22;11249;52.468;13.776;2023-10-08T06:06:00;9.80;99.90
22167;DHT22;11249;52.468;13.776;2023-10-08T06:08:42;9.80;99.90
22167;DHT22;11249;52.468;13.776;2023-10-08T06:11:27;9.80;99.90
22167;DHT22;11249;52.468;13.776;2023-10-08T06:14:04;9.80;99.90
22167;DHT22;11249;52.468;13.776;2023-10-08T06:16:40;9.80;99.90
22167;DHT22;11249;52.468;13.776;2023-10-08T06:19:28;9.80;99.90
22167;DHT22;11249;52.468;13.776;2023-10-08T06:21:55;9.80;99.90
22167;DHT22;11249;52.468;13.776;2023-10-08T06:24:22;9.80;99.90
22167;DHT22;11249;52.468;13.776;2023-10-08T06:26:52;9.80;99.90
22167;DHT22;11249;52.468;13.776;2023-10-08T06:29:21;9.80;99.90
22167;DHT22;11249;52.468;13.776;2023-10-08T06:31:56;9.90;99.90
22167;DHT22;11249;52.468;13.776;2023-10-08T06:34:23;9.90;99.90
22167;DHT22;11249;52.468;13.776;2023-10-08T06:36:55;10.00;99.90
22167;DHT22;11249;52.468;13.776;2023-10-08T06:39:23;10.10;99.90
22167;DHT22;11249;52.468;13.776;2023-10-08T06:41:59;10.10;99.90
22167;DHT22;11249;52.468;13.776;2023-10-08T06:44:26;10.10;99.90
22167;DHT22;11249;52.468;13.776;2023-10-08T06:46:54;10.10;99.90
22167;DHT22;11249;52.468;13.776;2023-10-08T06:49:23;10.10;99.90
22167;DHT22;11249;52.468;13.776;2023-10-08T06:51:53;10.10;99.90
22167;DHT22;11249;52.468;13.776;2023-10-08T06:54:20;10.20;99.90
22167;DHT22;11249;52.468;13.776;2023-10-08T06:56:49;10.10;99.90
22167;DHT22;11249;52.468;13.776;2023-10-08T06:59:19;10.20;99.90
22167;DHT22;11249;52.468;13.776;2023-10-08T07:01:49;10.20;99.90
22167;DHT22;11249;52.468;13.776;2023-10-08T07:04:18;10.20;99.90
22167;DHT22;11249;52.468;13.776;2023-10-08T07:06:46;10.20;99.90
22167;DHT22;11249;52.468;13.776;2023-10-08T07:09:17;10.20;99.90
22167;DHT22;11249;52.468;13.776;2023-10-08T07:11:56;10.20;99.90
22167;DHT22;11249;52.468;13.776;2023-10-08T07:14:24;10.20;99.90
22167;DHT22;11249;52.468;13.776;2023-10-08T07:16:58;10.30;99.90
22167;DHT22;11249;52.468;13.776;2023-10-08T07:19:30;10.30;99.90
22167;DHT22;11249;52.468;13.776;2023-10-08T07:22:00;10.30;99.90
22167;DHT22;11249;52.468;13.776;2023-10-08T07:24:30;10.30;99.90
22167;DHT22;11249;52.468;13.776;2023-10-08T07:27:01;10.30;99.90
22167;DHT22;11249;52.468;13.776;2023-10-08T07:29:32;10.30;99.90
22167;DHT22;11249;52.468;13.776;2023-10-08T07:31:59;10.40;99.90
22167;DHT22;11249;52.468;13.776;2023-10-08T07:34:36;10.40;99.90
22167;DHT22;11249;52.468;13.776;2023-10-08T07:37:03;10.40;99.90
22167;DHT22;11249;52.468;13.776;2023-10-08T07:39:32;10.40;99.90
22167;DHT22;11249;52.468;13.776;2023-10-08T07:42:05;10.40;99.90
22167;DHT22;11249;52.468;13.776;2023-10-08T07:44:32;10.40;99.90
22167;DHT22;11249;52.468;13.776;2023-10-08T07:47:02;10.40;99.90
22167;DHT22;11249;52.468;13.776;2023-10-08T07:49:31;10.40;99.90
22167;DHT22;11249;52.468;13.776;2023-10-08T07:51:58;10.40;99.90
22167;DHT22;11249;52.468;13.776;2023-10-08T07:54:26;10.50;99.90
22167;DHT22;11249;52.468;13.776;2023-10-08T07:56:55;10.50;99.90
22167;DHT22;11249;52.468;13.776;2023-10-08T07:59:35;10.50;99.90
22167;DHT22;11249;52.468;13.776;2023-10-08T08:02:08;10.50;99.90
22167;DHT22;11249;52.468;13.776;2023-10-08T08:04:41;10.50;99.90
22167;DHT22;11249;52.468;13.776;2023-10-08T08:07:09;10.50;99.90
22167;DHT22;11249;52.468;13.776;2023-10-08T08:09:45;10.60;99.90
22167;DHT22;11249;52.468;13.776;2023-10-08T08:12:18;10.60;99.90
22167;DHT22;11249;52.468;13.776;2023-10-08T08:14:46;10.60;99.90
22167;DHT22;11249;52.468;13.776;2023-10-08T08:17:12;10.70;99.90
22167;DHT22;11249;52.468;13.776;2023-10-08T08:19:43;10.70;99.90
22167;DHT22;11249;52.468;13.776;2023-10-08T08:22:11;10.80;99.90
22167;DHT22;11249;52.468;13.776;2023-10-08T08:24:41;10.80;99.90
22167;DHT22;11249;52.468;13.776;2023-10-08T08:27:11;10.80;99.90
22167;DHT22;11249;52.468;13.776;2023-10-08T08:29:50;10.80;99.90
22167;DHT22;11249;52.468;13.776;2023-10-08T08:32:19;10.80;99.90
22167;DHT22;11249;52.468;13.776;2023-10-08T08:34:48;10.80;99.90
22167;DHT22;11249;52.468;13.776;2023-10-08T08:37:17;10.90;99.90
22167;DHT22;11249;52.468;13.776;2023-10-08T08:39:44;10.90;99.90
22167;DHT22;11249;52.468;13.776;2023-10-08T08:42:12;10.90;99.90
22167;DHT22;11249;52.468;13.776;2023-10-08T08:44:41;10.90;99.90
22167;DHT22;11249;52.468;13.776;2023-10-08T08:47:13;10.90;99.90
22167;DHT22;11249;52.468;13.776;2023-10-08T08:49:51;11.00;99.90
22167;DHT22;11249;52.468;13.776;2023-10-08T08:52:21;11.00;99.90
22167;DHT22;11249;52.468;13.776;2023-10-08T08:54:49;11.00;99.90
22167;DHT22;11249;52.468;13.776;2023-10-08T08:57:18;11.10;99.90
22167;DHT22;11249;52.468;13.776;2023-10-08T08:59:52;11.10;99.90
22167;DHT22;11249;52.468;13.776;2023-10-08T09:02:22;11.10;99.90
22167;DHT22;11249;52.468;13.776;2023-10-08T09:04:49;11.20;99.90
22167;DHT22;11249;52.468;13.776;2023-10-08T09:07:23;11.30;99.90
22167;DHT22;11249;52.468;13.776;2023-10-08T09:09:49;11.30;99.90
22167;DHT22;11249;52.468;13.776;2023-10-08T09:12:17;11.40;99.90
22167;DHT22;11249;52.468;13.776;2023-10-08T09:14:43;11.40;99.90
22167;DHT22;11249;52.468;13.776;2023-10-08T09:17:16;11.40;99.90
22167;DHT22;11249;52.468;13.776;2023-10-08T09:19:43;11.40;99.90
22167;DHT22;11249;52.468;13.776;2023-10-08T09:22:12;11.50;99.90
22167;DHT22;11249;52.468;13.776;2023-10-08T09:24:40;11.50;99.90
22167;DHT22;11249;52.468;13.776;2023-10-08T09:27:07;11.60;99.90
22167;DHT22;11249;52.468;13.776;2023-10-08T09:29:34;11.60;99.90
22167;DHT22;11249;52.468;13.776;2023-10-08T09:32:13;11.70;99.90
22167;DHT22;11249;52.468;13.776;2023-10-08T09:34:40;11.70;99.90
22167;DHT22;11249;52.468;13.776;2023-10-08T09:37:06;11.70;99.90
22167;DHT22;11249;52.468;13.776;2023-10-08T09:39:36;11.80;99.90
22167;DHT22;11249;52.468;13.776;2023-10-08T09:42:03;11.90;99.90
22167;DHT22;11249;52.468;13.776;2023-10-08T09:44:33;12.00;99.90
22167;DHT22;11249;52.468;13.776;2023-10-08T09:47:04;12.00;99.90
22167;DHT22;11249;52.468;13.776;2023-10-08T09:52:02;12.10;99.90
22167;DHT22;11249;52.468;13.776;2023-10-08T09:54:30;12.20;99.90
22167;DHT22;11249;52.468;13.776;2023-10-08T09:57:01;12.20;99.90
22167;DHT22;11249;52.468;13.776;2023-10-08T09:59:28;12.30;99.90
22167;DHT22;11249;52.468;13.776;2023-10-08T10:01:55;12.40;99.90
22167;DHT22;11249;52.468;13.776;2023-10-08T10:04:26;12.40;99.90
22167;DHT22;11249;52.468;13.776;2023-10-08T10:06:55;12.40;99.90
22167;DHT22;11249;52.468;13.776;2023-10-08T10:09:24;12.50;99.90
22167;DHT22;11249;52.468;13.776;2023-10-08T10:11:51;12.60;99.90
22167;DHT22;11249;52.468;13.776;2023-10-08T10:14:23;12.60;99.90
22167;DHT22;11249;52.468;13.776;2023-10-08T10:19:44;12.70;99.90
22167;DHT22;11249;52.468;13.776;2023-10-08T10:22:13;12.70;99.90
22167;DHT22;11249;52.468;13.776;2023-10-08T10:24:42;12.70;99.90
22167;DHT22;11249;52.468;13.776;2023-10-08T10:27:09;12.70;99.90
22167;DHT22;11249;52.468;13.776;2023-10-08T10:29:37;12.80;99.90
22167;DHT22;11249;52.468;13.776;2023-10-08T10:32:04;12.90;99.90
22167;DHT22;11249;52.468;13.776;2023-10-08T10:34:31;13.00;99.90
22167;DHT22;11249;52.468;13.776;2023-10-08T10:37:01;13.10;99.90
22167;DHT22;11249;52.468;13.776;2023-10-08T10:39:57;13.20;99.90
22167;DHT22;11249;52.468;13.776;2023-10-08T10:42:27;13.30;99.90
22167;DHT22;11249;52.468;13.776;2023-10-08T10:44:55;13.50;99.90
22167;DHT22;11249;52.468;13.776;2023-10-08T10:47:23;13.70;99.90
22167;DHT22;11249;52.468;13.776;2023-10-08T10:49:53;13.80;99.90
22167;DHT22;11249;52.468;13.776;2023-10-08T10:52:23;14.00;99.90
22167;DHT22;11249;52.468;13.776;2023-10-08T10:55:11;14.10;99.90
22167;DHT22;11249;52.468;13.776;2023-10-08T10:57:41;14.20;99.90
22167;DHT22;11249;52.468;13.776;2023-10-08T11:00:09;14.40;99.90
22167;DHT22;11249;52.468;13.776;2023-10-08T11:02:55;14.50;99.90
22167;DHT22;11249;52.468;13.776;2023-10-08T11:05:23;14.60;99.90
22167;DHT22;11249;52.468;13.776;2023-10-08T11:07:55;14.80;99.90
22167;DHT22;11249;52.468;13.776;2023-10-08T11:10:27;14.90;99.90
22167;DHT22;11249;52.468;13.776;2023-10-08T11:12:55;14.80;99.90
22167;DHT22;11249;52.468;13.776;2023-10-08T11:15:25;14.80;99.90
22167;DHT22;11249;52.468;13.776;2023-10-08T11:17:59;15.00;99.90
22167;DHT22;11249;52.468;13.776;2023-10-08T11:20:26;15.00;99.90
22167;DHT22;11249;52.468;13.776;2023-10-08T11:22:53;15.10;99.90
22167;DHT22;11249;52.468;13.776;2023-10-08T11:25:23;15.20;99.90
22167;DHT22;11249;52.468;13.776;2023-10-08T11:27:54;15.40;99.90
22167;DHT22;11249;52.468;13.776;2023-10-08T11:30:28;15.50;99.90
22167;DHT22;11249;52.468;13.776;2023-10-08T11:32:58;15.70;99.90
22167;DHT22;11249;52.468;13.776;2023-10-08T11:35:26;15.90;99.90
22167;DHT22;11249;52.468;13.776;2023-10-08T11:38:00;16.10;99.90
22167;DHT22;11249;52.468;13.776;2023-10-08T11:40:30;16.30;99.90
22167;DHT22;11249;52.468;13.776;2023-10-08T11:43:15;16.20;99.90
22167;DHT22;11249;52.468;13.776;2023-10-08T11:45:45;16.00;99.90
22167;DHT22;11249;52.468;13.776;2023-10-08T11:48:15;16.30;99.90
22167;DHT22;11249;52.468;13.776;2023-10-08T11:50:48;16.60;99.90
22167;DHT22;11249;52.468;13.776;2023-10-08T11:53:17;16.80;99.90
22167;DHT22;11249;52.468;13.776;2023-10-08T11:55:45;16.80;99.90
22167;DHT22;11249;52.468;13.776;2023-10-08T11:58:14;16.80;99.90
22167;DHT22;11249;52.468;13.776;2023-10-08T12:00:44;17.00;99.90
22167;DHT22;11249;52.468;13.776;2023-10-08T12:03:13;16.80;99.90
22167;DHT22;11249;52.468;13.776;2023-10-08T12:05:45;16.90;99.90
22167;DHT22;11249;52.468;13.776;2023-10-08T12:08:18;16.90;99.90
22167;DHT22;11249;52.468;13.776;2023-10-08T12:10:47;17.00;99.90
22167;DHT22;11249;52.468;13.776;2023-10-08T12:13:15;16.90;99.90
22167;DHT22;11249;52.468;13.776;2023-10-08T12:15:45;17.10;99.90
22167;DHT22;11249;52.468;13.776;2023-10-08T12:18:14;17.20;99.90
22167;DHT22;11249;52.468;13.776;2023-10-08T12:20:56;17.10;99.90
22167;DHT22;11249;52.468;13.776;2023-10-08T12:23:22;16.90;99.90
22167;DHT22;11249;52.468;13.776;2023-10-08T12:25:53;16.60;99.90
22167;DHT22;11249;52.468;13.776;2023-10-08T12:28:22;16.70;99.90
22167;DHT22;11249;52.468;13.776;2023-10-08T12:30:51;16.70;99.90
22167;DHT22;11249;52.468;13.776;2023-10-08T12:33:23;16.70;99.90
22167;DHT22;11249;52.468;13.776;2023-10-08T12:35:51;17.00;99.90
22167;DHT22;11249;52.468;13.776;2023-10-08T12:38:22;17.40;99.90
22167;DHT22;11249;52.468;13.776;2023-10-08T12:40:49;17.60;99.90
22167;DHT22;11249;52.468;13.776;2023-10-08T12:43:23;17.70;99.90
22167;DHT22;11249;52.468;13.776;2023-10-08T12:45:54;17.80;99.90
22167;DHT22;11249;52.468;13.776;2023-10-08T12:48:24;17.90;99.90
22167;DHT22;11249;52.468;13.776;2023-10-08T12:50:53;17.90;99.90
22167;DHT22;11249;52.468;13.776;2023-10-08T12:53:20;17.70;99.90
22167;DHT22;11249;52.468;13.776;2023-10-08T12:55:50;17.50;99.90
22167;DHT22;11249;52.468;13.776;2023-10-08T12:58:20;17.50;99.90
22167;DHT22;11249;52.468;13.776;2023-10-08T13:00:49;17.10;99.90
22167;DHT22;11249;52.468;13.776;2023-10-08T13:03:24;16.90;99.90
22167;DHT22;11249;52.468;13.776;2023-10-08T13:05:51;16.60;99.90
22167;DHT22;11249;52.468;13.776;2023-10-08T13:08:30;16.50;99.90
22167;DHT22;11249;52.468;13.776;2023-10-08T13:10:57;16.70;99.90
22167;DHT22;11249;52.468;13.776;2023-10-08T13:13:27;17.10;99.90
22167;DHT22;11249;52.468;13.776;2023-10-08T13:15:54;17.40;99.90
22167;DHT22;11249;52.468;13.776;2023-10-08T13:18:23;17.50;99.90
22167;DHT22;11249;52.468;13.776;2023-10-08T13:20:52;17.70;99.90
22167;DHT22;11249;52.468;13.776;2023-10-08T13:23:19;17.70;99.90
22167;DHT22;11249;52.468;13.776;2023-10-08T13:25:50;17.70;99.90
22167;DHT22;11249;52.468;13.776;2023-10-08T13:28:24;17.70;99.90
22167;DHT22;11249;52.468;13.776;2023-10-08T13:30:54;17.70;99.90
22167;DHT22;11249;52.468;13.776;2023-10-08T13:33:21;18.10;99.90
22167;DHT22;11249;52.468;13.776;2023-10-08T13:35:51;18.30;99.90
22167;DHT22;11249;52.468;13.776;2023-10-08T13:38:29;18.20;99.90
22167;DHT22;11249;52.468;13.776;2023-10-08T13:40:56;18.40;99.90
22167;DHT22;11249;52.468;13.776;2023-10-08T13:43:30;18.60;99.90
22167;DHT22;11249;52.468;13.776;2023-10-08T13:48:31;19.40;99.90
22167;DHT22;11249;52.468;13.776;2023-10-08T13:51:00;19.60;99.90
22167;DHT22;11249;52.468;13.776;2023-10-08T13:53:26;19.50;99.90
22167;DHT22;11249;52.468;13.776;2023-10-08T13:55:59;19.40;99.90
22167;DHT22;11249;52.468;13.776;2023-10-08T13:58:30;19.50;99.90
22167;DHT22;11249;52.468;13.776;2023-10-08T14:00:57;19.40;99.90
22167;DHT22;11249;52.468;13.776;2023-10-08T14:03:30;19.20;99.90
22167;DHT22;11249;52.468;13.776;2023-10-08T14:05:59;19.20;99.90
22167;DHT22;11249;52.468;13.776;2023-10-08T14:08:31;19.00;99.90
22167;DHT22;11249;52.468;13.776;2023-10-08T14:10:57;18.80;99.90
22167;DHT22;11249;52.468;13.776;2023-10-08T14:13:33;18.60;99.90
22167;DHT22;11249;52.468;13.776;2023-10-08T14:16:02;18.70;99.90
22167;DHT22;11249;52.468;13.776;2023-10-08T14:18:34;18.70;99.90
22167;DHT22;11249;52.468;13.776;2023-10-08T14:21:07;18.90;99.90
22167;DHT22;11249;52.468;13.776;2023-10-08T14:23:37;18.90;99.90
22167;DHT22;11249;52.468;13.776;2023-10-08T14:26:07;19.00;99.90
22167;DHT22;11249;52.468;13.776;2023-10-08T14:28:34;19.00;99.90
22167;DHT22;11249;52.468;13.776;2023-10-08T14:31:07;19.00;99.90
22167;DHT22;11249;52.468;13.776;2023-10-08T14:33:34;19.20;99.90
22167;DHT22;11249;52.468;13.776;2023-10-08T14:36:10;19.30;99.90
22167;DHT22;11249;52.468;13.776;2023-10-08T14:38:55;19.60;99.90
22167;DHT22;11249;52.468;13.776;2023-10-08T14:41:40;19.50;99.90
22167;DHT22;11249;52.468;13.776;2023-10-08T14:44:25;19.50;99.90
22167;DHT22;11249;52.468;13.776;2023-10-08T14:46:52;19.20;99.90
22167;DHT22;11249;52.468;13.776;2023-10-08T14:49:21;18.90;99.90
22167;DHT22;11249;52.468;13.776;2023-10-08T14:51:49;18.70;99.90
22167;DHT22;11249;52.468;13.776;2023-10-08T14:54:15;18.60;99.90
22167;DHT22;11249;52.468;13.776;2023-10-08T14:56:42;18.60;99.90
22167;DHT22;11249;52.468;13.776;2023-10-08T14:59:09;18.60;99.90
22167;DHT22;11249;52.468;13.776;2023-10-08T15:01:36;18.40;99.90
22167;DHT22;11249;52.468;13.776;2023-10-08T15:04:03;18.40;99.90
22167;DHT22;11249;52.468;13.776;2023-10-08T15:06:31;18.30;99.90
22167;DHT22;11249;52.468;13.776;2023-10-08T15:08:58;18.20;99.90
22167;DHT22;11249;52.468;13.776;2023-10-08T15:11:25;18.30;99.90
22167;DHT22;11249;52.468;13.776;2023-10-08T15:13:53;18.20;99.90
22167;DHT22;11249;52.468;13.776;2023-10-08T15:16:20;18.20;99.90
22167;DHT22;11249;52.468;13.776;2023-10-08T15:18:49;18.20;99.90
22167;DHT22;11249;52.468;13.776;2023-10-08T15:21:17;18.10;99.90
22167;DHT22;11249;52.468;13.776;2023-10-08T15:23:44;18.00;99.90
22167;DHT22;11249;52.468;13.776;2023-10-08T15:26:12;17.90;99.90
22167;DHT22;11249;52.468;13.776;2023-10-08T15:28:39;17.70;99.90
22167;DHT22;11249;52.468;13.776;2023-10-08T15:31:05;17.60;99.90
22167;DHT22;11249;52.468;13.776;2023-10-08T15:33:33;17.50;99.90
22167;DHT22;11249;52.468;13.776;2023-10-08T15:36:00;17.20;99.90
22167;DHT22;11249;52.468;13.776;2023-10-08T15:38:27;17.00;99.90
22167;DHT22;11249;52.468;13.776;2023-10-08T15:40:54;16.70;99.90
22167;DHT22;11249;52.468;13.776;2023-10-08T15:43:21;16.40;99.90
22167;DHT22;11249;52.468;13.776;2023-10-08T15:45:47;16.30;99.90
22167;DHT22;11249;52.468;13.776;2023-10-08T15:48:14;16.10;99.90
22167;DHT22;11249;52.468;13.776;2023-10-08T15:50:41;15.90;99.90